Time;durP1;ratioP1;P1;durP2;ratioP2;P2;SDS_P1;SDS_P2;PMS_P1;PMS_P2;Temp;Humidity;BMP_temperature;BMP_pressure;BME280_temperature;BME280_humidity;BME280_pressure;Samples;Min_cycle;Max_cycle;Signal;HPM_P1;HPM_P2
2022/12/18 00:01:39;;;;;;;34.47;20.08;;;;;;;;;;4999881;28;20061;-73
2022/12/18 00:04:07;;;;;;;33.00;20.25;;;;;;;;;;5000483;28;20047;-72
2022/12/18 00:06:34;;;;;;;33.20;19.63;;;;;;;;;;4998391;28;20531;-73
2022/12/18 00:09:00;;;;;;;35.83;21.30;;;;;;;;;;5000127;28;20042;-72
2022/12/18 00:11:28;;;;;;;35.08;22.58;;;;;;;;;;5000743;28;20136;-72
2022/12/18 00:13:54;;;;;;;40.88;23.83;;;;;;;;;;4996549;28;20042;-72
2022/12/18 00:16:21;;;;;;;35.53;21.52;;;;;;;;;;5001856;28;20028;-73
2022/12/18 00:18:48;;;;;;;39.53;24.42;;;;;;;;;;5002744;28;20038;-73
2022/12/18 00:21:15;;;;;;;44.47;28.80;;;;;;;;;;5002393;28;20105;-73
2022/12/18 00:23:42;;;;;;;49.55;28.98;;;;;;;;;;5000225;28;20103;-74
2022/12/18 00:26:10;;;;;;;38.92;22.00;;;;;;;;;;4995997;28;20060;-73
2022/12/18 00:28:37;;;;;;;40.25;22.92;;;;;;;;;;4986260;28;20481;-72
2022/12/18 00:31:10;;;;;;;38.65;22.77;;;;;;;;;;4996440;28;20554;-73
2022/12/18 00:33:36;;;;;;;38.78;23.15;;;;;;;;;;4993487;28;20046;-72
2022/12/18 00:36:03;;;;;;;42.97;24.08;;;;;;;;;;5000147;28;20033;-73
2022/12/18 00:38:29;;;;;;;37.10;22.25;;;;;;;;;;5006015;28;20037;-72
2022/12/18 00:40:55;;;;;;;37.90;22.02;;;;;;;;;;5005268;28;20033;-73
2022/12/18 00:43:21;;;;;;;43.90;24.80;;;;;;;;;;5004591;28;20042;-73
2022/12/18 00:45:47;;;;;;;51.13;29.70;;;;;;;;;;5004631;28;20057;-73
2022/12/18 00:48:13;;;;;;;43.08;26.75;;;;;;;;;;5001336;28;20034;-72
2022/12/18 00:50:39;;;;;;;39.33;22.65;;;;;;;;;;5003024;28;20034;-73
2022/12/18 00:53:06;;;;;;;38.55;23.85;;;;;;;;;;5002359;28;20042;-72
2022/12/18 00:55:32;;;;;;;41.63;23.85;;;;;;;;;;5002466;28;20706;-72
2022/12/18 00:57:58;;;;;;;43.95;27.13;;;;;;;;;;5004088;28;20018;-73
2022/12/18 01:00:24;;;;;;;40.50;24.92;;;;;;;;;;4997348;28;20128;-73
2022/12/18 01:02:50;;;;;;;41.83;27.48;;;;;;;;;;4998953;28;20080;-72
2022/12/18 01:05:16;;;;;;;49.15;29.85;;;;;;;;;;4996501;28;20046;-72
2022/12/18 01:07:42;;;;;;;44.97;28.95;;;;;;;;;;5001109;28;20579;-73
2022/12/18 01:10:10;;;;;;;47.85;28.38;;;;;;;;;;4999146;28;20033;-73
2022/12/18 01:12:36;;;;;;;49.45;30.30;;;;;;;;;;5004368;28;20130;-73
2022/12/18 01:15:02;;;;;;;51.78;32.17;;;;;;;;;;5006364;28;20774;-72
2022/12/18 01:17:28;;;;;;;46.55;28.30;;;;;;;;;;5002129;28;20079;-72
2022/12/18 01:19:54;;;;;;;53.28;30.45;;;;;;;;;;5001075;28;20660;-73
2022/12/18 01:22:20;;;;;;;44.95;26.17;;;;;;;;;;5001334;28;20038;-72
2022/12/18 01:24:46;;;;;;;37.72;22.13;;;;;;;;;;4997152;28;20034;-72
2022/12/18 01:27:12;;;;;;;33.63;20.38;;;;;;;;;;5006516;28;20037;-73
2022/12/18 01:29:38;;;;;;;34.08;20.30;;;;;;;;;;4997674;28;20046;-73
2022/12/18 01:32:04;;;;;;;35.25;18.95;;;;;;;;;;5001943;28;20533;-72
2022/12/18 01:34:30;;;;;;;31.75;19.35;;;;;;;;;;4996971;28;20034;-72
2022/12/18 01:36:56;;;;;;;33.53;20.05;;;;;;;;;;5000403;28;20049;-72
2022/12/18 01:39:22;;;;;;;28.38;17.73;;;;;;;;;;4992669;28;20472;-72
2022/12/18 01:42:03;;;;;;;30.00;17.25;;;;;;;;;;5006303;28;20033;-72
2022/12/18 01:44:47;;;;;;;30.33;17.48;;;;;;;;;;5000653;28;20037;-72
2022/12/18 01:47:25;;;;;;;33.35;19.02;;;;;;;;;;5006700;28;20030;-72
2022/12/18 01:49:52;;;;;;;26.83;15.82;;;;;;;;;;5000676;28;20045;-73
2022/12/18 01:52:19;;;;;;;26.42;15.25;;;;;;;;;;5004467;28;20025;-73
2022/12/18 01:54:45;;;;;;;30.70;17.00;;;;;;;;;;5008138;28;20030;-72
2022/12/18 01:57:11;;;;;;;35.08;19.50;;;;;;;;;;5004506;28;20023;-72
2022/12/18 01:59:38;;;;;;;34.50;19.63;;;;;;;;;;5004685;28;20471;-73
2022/12/18 02:02:04;;;;;;;32.60;18.27;;;;;;;;;;4997528;28;20038;-73
2022/12/18 02:04:30;;;;;;;33.58;19.63;;;;;;;;;;5003049;28;20053;-72
2022/12/18 02:07:03;;;;;;;36.92;21.92;;;;;;;;;;5004303;28;20108;-72
2022/12/18 02:09:32;;;;;;;42.03;24.30;;;;;;;;;;5006589;28;20901;-73
2022/12/18 02:12:19;;;;;;;40.65;23.85;;;;;;;;;;5001035;28;20056;-72
2022/12/18 02:14:50;;;;;;;47.92;27.45;;;;;;;;;;5007157;28;20113;-73
2022/12/18 02:17:20;;;;;;;46.28;26.27;;;;;;;;;;5003352;28;20030;-73
2022/12/18 02:19:55;;;;;;;50.42;26.25;;;;;;;;;;5009199;28;20026;-72
2022/12/18 02:22:24;;;;;;;41.97;25.20;;;;;;;;;;5003788;28;20038;-73
2022/12/18 02:25:03;;;;;;;46.25;25.98;;;;;;;;;;4999546;28;20084;-73
2022/12/18 02:27:30;;;;;;;43.35;26.25;;;;;;;;;;4997012;28;20042;-73
2022/12/18 02:29:58;;;;;;;31.50;18.17;;;;;;;;;;5005265;28;20054;-73
2022/12/18 02:32:32;;;;;;;28.83;16.73;;;;;;;;;;5004130;28;20381;-72
2022/12/18 02:34:59;;;;;;;27.35;16.67;;;;;;;;;;5002245;28;20041;-72
2022/12/18 02:37:27;;;;;;;25.55;14.75;;;;;;;;;;5001902;28;20449;-72
2022/12/18 02:39:55;;;;;;;27.63;16.30;;;;;;;;;;4999556;28;20092;-73
2022/12/18 02:42:22;;;;;;;32.00;18.05;;;;;;;;;;5002949;28;20030;-73
2022/12/18 02:44:50;;;;;;;29.20;16.55;;;;;;;;;;5006999;28;20034;-73
2022/12/18 02:47:17;;;;;;;31.90;19.20;;;;;;;;;;5001817;28;20386;-73
2022/12/18 02:49:43;;;;;;;30.33;17.85;;;;;;;;;;5008356;28;20454;-73
2022/12/18 02:52:28;;;;;;;27.50;15.90;;;;;;;;;;5003077;28;20044;-72
2022/12/18 02:54:54;;;;;;;35.40;20.08;;;;;;;;;;5007682;28;20106;-72
2022/12/18 02:57:25;;;;;;;30.73;16.80;;;;;;;;;;4994526;28;20066;-73
2022/12/18 02:59:58;;;;;;;34.05;16.23;;;;;;;;;;5007382;28;20440;-73
2022/12/18 03:02:51;;;;;;;27.52;13.05;;;;;;;;;;5000417;28;20034;-72
2022/12/18 03:05:25;;;;;;;23.30;13.57;;;;;;;;;;4998703;28;20137;-73
2022/12/18 03:07:55;;;;;;;20.45;11.52;;;;;;;;;;5000284;28;20141;-72
2022/12/18 03:10:26;;;;;;;19.20;10.77;;;;;;;;;;4999164;28;20034;-73
2022/12/18 03:12:55;;;;;;;26.55;12.45;;;;;;;;;;4998047;28;20068;-73
2022/12/18 03:15:26;;;;;;;22.95;13.32;;;;;;;;;;5000728;28;20030;-73
2022/12/18 03:18:10;;;;;;;23.63;12.88;;;;;;;;;;4991293;28;20038;-73
2022/12/18 03:20:37;;;;;;;23.55;12.93;;;;;;;;;;5004379;28;20038;-72
2022/12/18 03:23:06;;;;;;;26.35;14.70;;;;;;;;;;5006381;28;20030;-73
2022/12/18 03:25:33;;;;;;;29.92;14.40;;;;;;;;;;5005353;28;20038;-73
2022/12/18 03:28:01;;;;;;;23.60;13.48;;;;;;;;;;4995750;28;20080;-73
2022/12/18 03:30:29;;;;;;;27.73;15.65;;;;;;;;;;5008413;28;20674;-73
2022/12/18 03:33:02;;;;;;;28.13;16.20;;;;;;;;;;4998566;28;20033;-73
2022/12/18 03:35:30;;;;;;;27.38;15.93;;;;;;;;;;4998424;28;20113;-73
2022/12/18 03:37:56;;;;;;;26.95;15.48;;;;;;;;;;5002249;28;20101;-73
2022/12/18 03:40:24;;;;;;;25.92;14.15;;;;;;;;;;5002508;28;20033;-73
2022/12/18 03:42:53;;;;;;;19.42;11.75;;;;;;;;;;5005023;28;20038;-74
2022/12/18 03:45:19;;;;;;;25.27;13.60;;;;;;;;;;5002618;28;20061;-73
2022/12/18 03:47:51;;;;;;;27.00;12.93;;;;;;;;;;4997233;28;20065;-73
2022/12/18 03:50:22;;;;;;;20.20;10.82;;;;;;;;;;4999994;28;20037;-73
2022/12/18 03:52:57;;;;;;;25.45;13.07;;;;;;;;;;5001298;28;20109;-73
2022/12/18 03:55:24;;;;;;;24.63;13.43;;;;;;;;;;5002654;28;20376;-72
2022/12/18 03:57:51;;;;;;;24.42;13.98;;;;;;;;;;5005849;28;20101;-72
2022/12/18 04:00:18;;;;;;;26.17;16.67;;;;;;;;;;5003388;28;20367;-73
2022/12/18 04:02:54;;;;;;;29.15;16.65;;;;;;;;;;5002568;28;20433;-72
2022/12/18 04:05:21;;;;;;;34.22;18.13;;;;;;;;;;4997320;28;20042;-72
2022/12/18 04:07:48;;;;;;;28.40;14.88;;;;;;;;;;4998599;28;20044;-72
2022/12/18 04:10:15;;;;;;;37.83;19.92;;;;;;;;;;4994581;28;20145;-72
2022/12/18 04:12:41;;;;;;;35.30;19.50;;;;;;;;;;5003129;28;20116;-73
2022/12/18 04:15:08;;;;;;;34.65;20.25;;;;;;;;;;5003115;28;20469;-73
2022/12/18 04:17:34;;;;;;;35.08;19.80;;;;;;;;;;5001766;28;20105;-73
2022/12/18 04:20:00;;;;;;;34.10;19.02;;;;;;;;;;5005636;28;20160;-72
2022/12/18 04:22:26;;;;;;;32.90;17.50;;;;;;;;;;5004977;28;20482;-73
2022/12/18 04:24:52;;;;;;;31.02;18.45;;;;;;;;;;4996317;28;20034;-73
2022/12/18 04:27:17;;;;;;;33.92;19.40;;;;;;;;;;5000946;28;20045;-72
2022/12/18 04:29:43;;;;;;;34.50;20.92;;;;;;;;;;5002958;28;20077;-73
2022/12/18 04:32:10;;;;;;;38.25;21.45;;;;;;;;;;5001290;28;20026;-72
2022/12/18 04:34:35;;;;;;;45.67;24.25;;;;;;;;;;4997299;28;20026;-72
2022/12/18 04:37:01;;;;;;;43.75;26.52;;;;;;;;;;5003079;28;20524;-72
2022/12/18 04:39:27;;;;;;;44.08;25.02;;;;;;;;;;4998567;28;20026;-73
2022/12/18 04:41:53;;;;;;;36.90;21.30;;;;;;;;;;5004413;28;20057;-73
2022/12/18 04:44:19;;;;;;;36.30;20.30;;;;;;;;;;5002664;28;20042;-72
2022/12/18 04:46:45;;;;;;;38.58;19.83;;;;;;;;;;5003515;28;20034;-73
2022/12/18 04:49:12;;;;;;;37.65;20.85;;;;;;;;;;5002335;28;20114;-73
2022/12/18 04:51:38;;;;;;;41.30;22.92;;;;;;;;;;4997409;28;20449;-73
2022/12/18 04:54:04;;;;;;;40.60;23.35;;;;;;;;;;5007269;28;20030;-72
2022/12/18 04:56:31;;;;;;;36.95;20.65;;;;;;;;;;5004245;28;20109;-72
2022/12/18 04:58:57;;;;;;;35.30;18.95;;;;;;;;;;4999109;28;20034;-72
2022/12/18 05:01:23;;;;;;;39.80;20.38;;;;;;;;;;5000205;28;20050;-72
2022/12/18 05:03:49;;;;;;;37.03;20.35;;;;;;;;;;4999699;28;20040;-72
2022/12/18 05:06:15;;;;;;;35.92;19.70;;;;;;;;;;5003777;28;20409;-72
2022/12/18 05:08:41;;;;;;;30.63;16.48;;;;;;;;;;4998325;28;20084;-72
2022/12/18 05:11:13;;;;;;;34.08;18.95;;;;;;;;;;4999202;28;20034;-73
2022/12/18 05:13:39;;;;;;;33.63;18.88;;;;;;;;;;5007625;28;20033;-73
2022/12/18 05:16:06;;;;;;;35.30;19.83;;;;;;;;;;5007937;28;20061;-72
2022/12/18 05:18:32;;;;;;;33.45;19.42;;;;;;;;;;5009882;28;20034;-73
2022/12/18 05:20:58;;;;;;;30.98;17.27;;;;;;;;;;5005997;28;20400;-73
2022/12/18 05:23:24;;;;;;;39.08;20.40;;;;;;;;;;5006507;28;20038;-72
2022/12/18 05:25:54;;;;;;;39.88;20.27;;;;;;;;;;5002607;28;20573;-72
2022/12/18 05:28:20;;;;;;;35.53;19.60;;;;;;;;;;5000883;28;20045;-73
2022/12/18 05:30:53;;;;;;;35.40;19.60;;;;;;;;;;5002362;28;20069;-72
2022/12/18 05:33:20;;;;;;;36.42;18.05;;;;;;;;;;5011015;28;20029;-73
2022/12/18 05:35:51;;;;;;;33.13;17.98;;;;;;;;;;5009084;28;20117;-73
2022/12/18 05:38:17;;;;;;;33.88;18.20;;;;;;;;;;5007597;28;20108;-73
2022/12/18 05:40:43;;;;;;;31.60;17.00;;;;;;;;;;5005554;28;20101;-72
2022/12/18 05:43:10;;;;;;;31.67;17.77;;;;;;;;;;5007330;28;20473;-73
2022/12/18 05:45:39;;;;;;;33.08;18.00;;;;;;;;;;5009816;28;20036;-73
2022/12/18 05:48:05;;;;;;;33.15;18.27;;;;;;;;;;5009124;28;20121;-73
2022/12/18 05:50:31;;;;;;;29.20;17.08;;;;;;;;;;5007190;28;20685;-73
2022/12/18 05:52:57;;;;;;;29.95;16.95;;;;;;;;;;5010209;28;20026;-72
2022/12/18 05:55:23;;;;;;;29.75;16.25;;;;;;;;;;5009866;28;20092;-72
2022/12/18 05:57:49;;;;;;;30.33;15.75;;;;;;;;;;5004661;28;20058;-72
2022/12/18 06:00:15;;;;;;;31.85;16.35;;;;;;;;;;5010408;28;20033;-73
2022/12/18 06:02:41;;;;;;;33.25;18.55;;;;;;;;;;4995760;28;20088;-73
2022/12/18 06:05:08;;;;;;;28.35;17.23;;;;;;;;;;5007698;28;20432;-73
2022/12/18 06:07:34;;;;;;;31.88;17.92;;;;;;;;;;5002015;28;20670;-72
2022/12/18 06:10:00;;;;;;;29.02;17.25;;;;;;;;;;5005605;28;20033;-73
2022/12/18 06:12:26;;;;;;;24.40;14.70;;;;;;;;;;4993105;28;20061;-73
2022/12/18 06:14:52;;;;;;;27.92;14.93;;;;;;;;;;5008936;28;20048;-73
2022/12/18 06:17:18;;;;;;;26.63;14.68;;;;;;;;;;5004035;28;20026;-73
2022/12/18 06:19:44;;;;;;;27.70;16.15;;;;;;;;;;5007311;28;20026;-73
2022/12/18 06:22:10;;;;;;;27.25;14.95;;;;;;;;;;5001594;28;20080;-73
2022/12/18 06:24:36;;;;;;;27.80;16.30;;;;;;;;;;5010227;28;20038;-73
2022/12/18 06:27:02;;;;;;;28.52;16.48;;;;;;;;;;5005051;28;20036;-73
2022/12/18 06:29:28;;;;;;;25.52;14.70;;;;;;;;;;5007233;28;20514;-73
2022/12/18 06:31:54;;;;;;;26.27;15.32;;;;;;;;;;5006183;28;20056;-73
2022/12/18 06:34:20;;;;;;;30.80;16.52;;;;;;;;;;5003594;28;20121;-73
2022/12/18 06:36:46;;;;;;;27.77;16.70;;;;;;;;;;4998238;28;20035;-73
2022/12/18 06:39:12;;;;;;;30.85;18.23;;;;;;;;;;5002124;28;20037;-73
2022/12/18 06:41:38;;;;;;;28.08;16.55;;;;;;;;;;5001998;28;20035;-73
2022/12/18 06:44:05;;;;;;;36.28;18.33;;;;;;;;;;5001272;28;20109;-73
2022/12/18 06:46:32;;;;;;;35.63;19.38;;;;;;;;;;5000698;28;20097;-72
2022/12/18 06:48:58;;;;;;;31.90;17.58;;;;;;;;;;5003614;28;20038;-73
2022/12/18 06:51:24;;;;;;;31.35;17.67;;;;;;;;;;5004943;28;20124;-72
2022/12/18 06:53:50;;;;;;;30.13;17.48;;;;;;;;;;5002202;28;20030;-72
2022/12/18 06:56:17;;;;;;;32.00;18.25;;;;;;;;;;5001206;28;20036;-73
2022/12/18 06:58:43;;;;;;;40.08;19.52;;;;;;;;;;4996888;28;20344;-73
2022/12/18 07:01:11;;;;;;;41.40;21.55;;;;;;;;;;4998831;28;20065;-72
2022/12/18 07:03:37;;;;;;;48.40;28.33;;;;;;;;;;4997287;28;20038;-73
2022/12/18 07:06:04;;;;;;;40.85;22.52;;;;;;;;;;5005359;28;20458;-73
2022/12/18 07:08:31;;;;;;;32.55;18.95;;;;;;;;;;4998911;28;20786;-73
2022/12/18 07:10:57;;;;;;;32.70;19.10;;;;;;;;;;4998373;28;20635;-73
2022/12/18 07:13:23;;;;;;;29.00;16.15;;;;;;;;;;4999163;28;20775;-73
2022/12/18 07:15:49;;;;;;;30.67;15.27;;;;;;;;;;5000028;28;20038;-72
2022/12/18 07:18:15;;;;;;;32.53;17.90;;;;;;;;;;5003022;28;20428;-72
2022/12/18 07:20:41;;;;;;;25.98;13.60;;;;;;;;;;4998779;28;20036;-72
2022/12/18 07:23:07;;;;;;;26.33;15.00;;;;;;;;;;4996473;28;20717;-72
2022/12/18 07:25:37;;;;;;;29.73;16.63;;;;;;;;;;4998389;28;20045;-73
2022/12/18 07:28:03;;;;;;;32.08;17.17;;;;;;;;;;5003989;28;20033;-72
2022/12/18 07:30:29;;;;;;;30.80;15.70;;;;;;;;;;5000299;28;20670;-73
2022/12/18 07:32:55;;;;;;;26.50;14.00;;;;;;;;;;5005033;28;20442;-73
2022/12/18 07:35:21;;;;;;;29.15;16.83;;;;;;;;;;5002332;28;20044;-73
2022/12/18 07:37:47;;;;;;;35.65;19.42;;;;;;;;;;5002367;28;20113;-73
2022/12/18 07:40:13;;;;;;;39.80;21.88;;;;;;;;;;5000619;28;20026;-73
2022/12/18 07:42:39;;;;;;;41.65;23.50;;;;;;;;;;5006258;28;20456;-71
2022/12/18 07:45:05;;;;;;;33.67;18.45;;;;;;;;;;5002873;28;20383;-73
2022/12/18 07:47:35;;;;;;;26.15;16.05;;;;;;;;;;5002787;28;20038;-72
2022/12/18 07:50:01;;;;;;;26.40;14.25;;;;;;;;;;5000120;28;20710;-73
2022/12/18 07:52:27;;;;;;;27.30;14.88;;;;;;;;;;5001172;28;20046;-72
2022/12/18 07:54:53;;;;;;;30.55;16.02;;;;;;;;;;4999807;28;20030;-72
2022/12/18 07:57:19;;;;;;;34.63;19.25;;;;;;;;;;5002103;28;20038;-72
2022/12/18 07:59:45;;;;;;;39.78;20.55;;;;;;;;;;5000320;28;20034;-72
2022/12/18 08:02:11;;;;;;;35.00;18.13;;;;;;;;;;5002421;28;20035;-72
2022/12/18 08:04:37;;;;;;;35.40;18.65;;;;;;;;;;4996417;28;20041;-73
2022/12/18 08:07:03;;;;;;;35.58;17.95;;;;;;;;;;5000430;28;21275;-72
2022/12/18 08:09:29;;;;;;;34.50;18.70;;;;;;;;;;4996449;28;20034;-73
2022/12/18 08:11:55;;;;;;;40.95;16.77;;;;;;;;;;5001856;28;20484;-72
2022/12/18 08:14:21;;;;;;;37.50;18.50;;;;;;;;;;5002920;28;20116;-72
2022/12/18 08:16:47;;;;;;;34.83;17.92;;;;;;;;;;4999697;28;20484;-72
2022/12/18 08:19:13;;;;;;;31.17;16.15;;;;;;;;;;5000753;28;20077;-72
2022/12/18 08:21:39;;;;;;;33.80;16.40;;;;;;;;;;4997870;28;20038;-73
2022/12/18 08:24:05;;;;;;;28.90;16.08;;;;;;;;;;5004328;28;20038;-72
2022/12/18 08:26:32;;;;;;;36.45;19.65;;;;;;;;;;5002951;28;20038;-72
2022/12/18 08:28:58;;;;;;;35.90;19.10;;;;;;;;;;5002805;28;20080;-72
2022/12/18 08:31:25;;;;;;;36.75;19.17;;;;;;;;;;5000849;28;20085;-72
2022/12/18 08:33:51;;;;;;;34.72;20.55;;;;;;;;;;5004554;28;20038;-73
2022/12/18 08:36:17;;;;;;;43.35;23.52;;;;;;;;;;4999708;28;20041;-73
2022/12/18 08:38:43;;;;;;;36.75;18.42;;;;;;;;;;5003619;28;20589;-73
2022/12/18 08:41:10;;;;;;;39.00;21.33;;;;;;;;;;4997596;28;20037;-72
2022/12/18 08:46:22;;;;;;;39.67;18.65;;;;;;;;;;4994359;28;20045;-73
2022/12/18 08:48:48;;;;;;;37.53;18.88;;;;;;;;;;4997272;28;20469;-74
2022/12/18 08:51:17;;;;;;;38.13;21.27;;;;;;;;;;4998137;28;20033;-72
2022/12/18 08:53:42;;;;;;;44.35;24.05;;;;;;;;;;4998787;28;20026;-72
2022/12/18 08:56:08;;;;;;;47.75;25.15;;;;;;;;;;4998051;28;20038;-73
2022/12/18 08:58:34;;;;;;;44.85;23.73;;;;;;;;;;4995041;28;20132;-73
2022/12/18 09:01:04;;;;;;;44.70;26.23;;;;;;;;;;4998514;28;20030;-73
2022/12/18 09:03:31;;;;;;;37.60;20.65;;;;;;;;;;5001697;28;20030;-73
2022/12/18 09:05:57;;;;;;;42.33;21.85;;;;;;;;;;5002330;28;20398;-72
2022/12/18 09:08:23;;;;;;;56.17;28.63;;;;;;;;;;4999543;28;20038;-73
2022/12/18 09:10:50;;;;;;;55.85;29.70;;;;;;;;;;5000900;28;20038;-72
2022/12/18 09:13:16;;;;;;;56.97;29.23;;;;;;;;;;4998792;28;20540;-73
2022/12/18 09:15:47;;;;;;;51.65;27.77;;;;;;;;;;5001219;28;20062;-72
2022/12/18 09:18:13;;;;;;;52.80;28.00;;;;;;;;;;5002098;28;20030;-73
2022/12/18 09:20:39;;;;;;;55.45;29.13;;;;;;;;;;5001160;28;20026;-73
2022/12/18 09:23:06;;;;;;;55.55;29.42;;;;;;;;;;4993171;28;20536;-72
2022/12/18 09:25:33;;;;;;;53.70;30.40;;;;;;;;;;5003645;28;20034;-72
2022/12/18 09:28:15;;;;;;;64.75;34.40;;;;;;;;;;4999942;28;20060;-73
2022/12/18 09:30:43;;;;;;;53.88;30.08;;;;;;;;;;5001104;28;20137;-73
2022/12/18 09:33:09;;;;;;;58.78;32.45;;;;;;;;;;4996894;28;20033;-73
2022/12/18 09:35:39;;;;;;;75.90;39.78;;;;;;;;;;4999801;28;20033;-72
2022/12/18 09:38:05;;;;;;;74.88;38.08;;;;;;;;;;4999733;28;20029;-73
2022/12/18 09:40:36;;;;;;;75.80;41.78;;;;;;;;;;4999589;28;20038;-73
2022/12/18 09:43:04;;;;;;;77.28;42.60;;;;;;;;;;4999047;28;20044;-73
2022/12/18 09:45:41;;;;;;;66.85;38.88;;;;;;;;;;4997519;28;20571;-72
2022/12/18 09:48:11;;;;;;;66.95;37.38;;;;;;;;;;4996622;28;20041;-73
2022/12/18 09:50:39;;;;;;;57.42;35.05;;;;;;;;;;5001850;28;20117;-73
2022/12/18 09:53:10;;;;;;;58.97;34.58;;;;;;;;;;4997956;28;20065;-73
2022/12/18 09:55:41;;;;;;;58.07;35.97;;;;;;;;;;5002147;28;20064;-73
2022/12/18 09:58:16;;;;;;;54.78;32.38;;;;;;;;;;4992650;28;20269;-73
2022/12/18 10:00:42;;;;;;;57.22;30.90;;;;;;;;;;4999840;28;20081;-73
2022/12/18 10:03:12;;;;;;;63.00;35.28;;;;;;;;;;5005700;28;20034;-72
2022/12/18 10:05:58;;;;;;;53.92;30.17;;;;;;;;;;5006789;28;20030;-72
2022/12/18 10:08:39;;;;;;;62.70;33.40;;;;;;;;;;4986931;28;20049;-72
2022/12/18 10:11:21;;;;;;;61.80;33.60;;;;;;;;;;5003859;28;20065;-73
2022/12/18 10:13:57;;;;;;;68.70;35.78;;;;;;;;;;4999000;28;20026;-72
2022/12/18 10:16:32;;;;;;;66.78;35.50;;;;;;;;;;5003716;28;20037;-73
2022/12/18 10:19:02;;;;;;;67.97;37.05;;;;;;;;;;5001976;28;20076;-73
2022/12/18 10:21:31;;;;;;;68.20;36.72;;;;;;;;;;5005774;28;20560;-72
2022/12/18 10:24:03;;;;;;;65.57;36.15;;;;;;;;;;4999521;28;20034;-72
2022/12/18 10:26:29;;;;;;;58.22;33.33;;;;;;;;;;5004996;28;20046;-73
2022/12/18 10:28:56;;;;;;;60.88;32.13;;;;;;;;;;5000955;28;20416;-73
2022/12/18 10:31:23;;;;;;;63.80;37.60;;;;;;;;;;4988903;28;20108;-73
2022/12/18 10:33:49;;;;;;;64.15;37.60;;;;;;;;;;5001046;28;20079;-72
2022/12/18 10:36:15;;;;;;;58.45;34.35;;;;;;;;;;5001403;28;20489;-73
2022/12/18 10:38:41;;;;;;;58.78;34.28;;;;;;;;;;5000980;28;20053;-73
2022/12/18 10:41:11;;;;;;;76.43;49.10;;;;;;;;;;5000595;28;20061;-72
2022/12/18 10:43:38;;;;;;;91.68;59.88;;;;;;;;;;5001284;28;20045;-72
2022/12/18 10:46:10;;;;;;;51.53;34.65;;;;;;;;;;5006397;28;20547;-73
2022/12/18 10:49:05;;;;;;;44.10;27.35;;;;;;;;;;4997966;28;20034;-73
2022/12/18 10:51:33;;;;;;;42.03;25.10;;;;;;;;;;4989288;28;20052;-73
2022/12/18 10:54:06;;;;;;;41.50;24.63;;;;;;;;;;5004163;28;20029;-72
2022/12/18 10:56:35;;;;;;;39.80;25.52;;;;;;;;;;5004260;28;20477;-73
2022/12/18 10:59:03;;;;;;;43.70;24.85;;;;;;;;;;5002878;28;20116;-72
2022/12/18 11:01:45;;;;;;;41.88;26.33;;;;;;;;;;5002799;28;20038;-72
2022/12/18 11:04:16;;;;;;;39.90;23.88;;;;;;;;;;4995462;28;20121;-73
2022/12/18 11:07:10;;;;;;;38.20;23.23;;;;;;;;;;5007646;28;20543;-72
2022/12/18 11:09:37;;;;;;;30.63;19.80;;;;;;;;;;5000097;28;20111;-73
2022/12/18 11:12:15;;;;;;;26.13;17.75;;;;;;;;;;4999014;28;20145;-72
2022/12/18 11:14:41;;;;;;;31.42;20.20;;;;;;;;;;4996352;28;20064;-73
2022/12/18 11:17:18;;;;;;;35.05;21.98;;;;;;;;;;5006416;28;20030;-73
2022/12/18 11:19:44;;;;;;;30.95;19.48;;;;;;;;;;5005141;28;20101;-72
2022/12/18 11:22:21;;;;;;;31.95;20.33;;;;;;;;;;4998147;28;20118;-72
2022/12/18 11:24:56;;;;;;;36.80;22.63;;;;;;;;;;5000549;28;20068;-72
2022/12/18 11:27:22;;;;;;;34.67;22.92;;;;;;;;;;5004093;28;20049;-73
2022/12/18 11:29:50;;;;;;;31.98;19.85;;;;;;;;;;5003057;28;20429;-73
2022/12/18 11:32:16;;;;;;;25.92;16.95;;;;;;;;;;4997405;28;20066;-72
2022/12/18 11:34:45;;;;;;;23.48;14.25;;;;;;;;;;5000557;28;20057;-72
2022/12/18 11:37:12;;;;;;;23.95;13.65;;;;;;;;;;4998960;28;20425;-73
2022/12/18 11:39:41;;;;;;;19.08;11.40;;;;;;;;;;5000797;28;20041;-73
2022/12/18 11:42:13;;;;;;;20.35;13.02;;;;;;;;;;5001191;28;20362;-72
2022/12/18 11:44:39;;;;;;;22.30;12.80;;;;;;;;;;5002273;28;20030;-73
2022/12/18 11:47:16;;;;;;;20.15;13.57;;;;;;;;;;5005201;28;20118;-73
2022/12/18 11:49:42;;;;;;;20.02;11.90;;;;;;;;;;5000821;28;20931;-73
2022/12/18 11:52:29;;;;;;;18.55;11.48;;;;;;;;;;4999372;28;20129;-73
2022/12/18 11:55:15;;;;;;;19.00;11.48;;;;;;;;;;4999889;28;20108;-73
2022/12/18 11:57:41;;;;;;;24.95;15.25;;;;;;;;;;5005647;28;20453;-72
2022/12/18 12:00:14;;;;;;;20.95;13.20;;;;;;;;;;5003419;28;20062;-72
2022/12/18 12:02:59;;;;;;;21.17;13.85;;;;;;;;;;5003393;28;20357;-73
2022/12/18 12:05:28;;;;;;;27.90;16.02;;;;;;;;;;4996356;28;20121;-73
2022/12/18 12:07:55;;;;;;;29.63;17.08;;;;;;;;;;4997493;28;20029;-73
2022/12/18 12:10:27;;;;;;;34.45;20.55;;;;;;;;;;5000002;28;20030;-73
2022/12/18 12:13:03;;;;;;;29.27;18.70;;;;;;;;;;4997615;28;20033;-73
2022/12/18 12:15:46;;;;;;;29.75;17.92;;;;;;;;;;4994312;28;20034;-73
2022/12/18 12:18:18;;;;;;;29.10;18.25;;;;;;;;;;4997059;28;20026;-73
2022/12/18 12:20:54;;;;;;;28.23;18.63;;;;;;;;;;4999685;28;20152;-73
2022/12/18 12:23:20;;;;;;;30.45;19.15;;;;;;;;;;5000091;28;20080;-73
2022/12/18 12:25:49;;;;;;;28.98;18.50;;;;;;;;;;4999998;28;20065;-73
2022/12/18 12:28:24;;;;;;;29.52;18.98;;;;;;;;;;4999956;28;20030;-73
2022/12/18 12:30:59;;;;;;;28.10;18.60;;;;;;;;;;5002889;28;20045;-73
2022/12/18 12:33:31;;;;;;;28.48;18.15;;;;;;;;;;4997457;28;20465;-73
2022/12/18 12:36:05;;;;;;;26.92;16.73;;;;;;;;;;4997664;28;20042;-73
2022/12/18 12:38:37;;;;;;;28.35;17.60;;;;;;;;;;5001310;28;20030;-73
2022/12/18 12:43:12;;;;;;;28.60;17.50;;;;;;;;;;4998469;28;20037;-72
2022/12/18 12:43:55;;;;;;;31.55;19.75;;;;;;;;;;5000544;28;20041;-73
2022/12/18 12:46:23;;;;;;;26.27;15.93;;;;;;;;;;4997779;28;20117;-73
2022/12/18 12:48:53;;;;;;;23.85;14.77;;;;;;;;;;5003500;28;20038;-73
2022/12/18 12:51:36;;;;;;;33.55;18.67;;;;;;;;;;5002528;28;20046;-73
2022/12/18 12:54:03;;;;;;;32.17;19.42;;;;;;;;;;4994925;28;20042;-73
2022/12/18 12:56:38;;;;;;;36.13;19.83;;;;;;;;;;5001033;28;20071;-72
2022/12/18 12:59:23;;;;;;;33.45;19.25;;;;;;;;;;5005103;28;20795;-72
2022/12/18 13:02:10;;;;;;;28.95;17.95;;;;;;;;;;4995574;28;20065;-72
2022/12/18 13:04:42;;;;;;;32.03;16.83;;;;;;;;;;4985959;28;20666;-73
2022/12/18 13:07:15;;;;;;;22.77;13.75;;;;;;;;;;4995625;28;20046;-72
2022/12/18 13:09:59;;;;;;;19.98;10.73;;;;;;;;;;5001579;28;20103;-73
2022/12/18 13:15:20;;;;;;;16.40;9.15;;;;;;;;;;5001588;28;20040;-72
2022/12/18 13:17:46;;;;;;;15.35;8.27;;;;;;;;;;4996597;28;20042;-73
2022/12/18 13:20:13;;;;;;;11.85;7.03;;;;;;;;;;4997403;28;20022;-72
2022/12/18 13:22:39;;;;;;;12.35;6.30;;;;;;;;;;4998528;28;20030;-73
2022/12/18 13:25:43;;;;;;;15.90;7.85;;;;;;;;;;5001364;28;20040;-73
2022/12/18 13:28:14;;;;;;;14.75;8.30;;;;;;;;;;4946021;29;20044;-72
2022/12/18 13:30:47;;;;;;;10.98;6.68;;;;;;;;;;4944651;28;20582;-72
2022/12/18 13:33:16;;;;;;;9.25;5.55;;;;;;;;;;4960092;28;20043;-72
2022/12/18 13:35:51;;;;;;;10.05;6.28;;;;;;;;;;4980706;28;20027;-72
2022/12/18 13:38:19;;;;;;;8.05;4.20;;;;;;;;;;4987673;28;20038;-72
2022/12/18 13:40:49;;;;;;;11.98;5.60;;;;;;;;;;4984086;28;20034;-73
2022/12/18 13:43:20;;;;;;;13.88;7.13;;;;;;;;;;4978373;28;20371;-73
2022/12/18 13:45:59;;;;;;;15.68;6.53;;;;;;;;;;4984836;28;20489;-73
2022/12/18 13:48:26;;;;;;;11.02;6.53;;;;;;;;;;4982399;28;20117;-73
2022/12/18 13:50:58;;;;;;;20.30;11.15;;;;;;;;;;4983989;28;20038;-73
2022/12/18 13:53:24;;;;;;;;;;;;;;;;;;4981134;28;20034;-73
2022/12/18 13:55:50;;;;;;;17.73;9.52;;;;;;;;;;4976619;28;19929;-72
2022/12/18 13:58:17;;;;;;;14.65;7.63;;;;;;;;;;4987082;28;20042;-72
2022/12/18 14:00:43;;;;;;;17.00;10.88;;;;;;;;;;4985175;28;20052;-73
2022/12/18 14:03:18;;;;;;;14.43;7.32;;;;;;;;;;4981143;28;20771;-72
2022/12/18 14:05:46;;;;;;;17.88;8.38;;;;;;;;;;4985141;28;20041;-73
2022/12/18 14:08:14;;;;;;;19.02;10.02;;;;;;;;;;4981851;28;20085;-72
2022/12/18 14:10:41;;;;;;;20.10;10.65;;;;;;;;;;4983145;28;20038;-74
2022/12/18 14:13:09;;;;;;;18.73;9.82;;;;;;;;;;4983392;28;20042;-72
2022/12/18 14:15:36;;;;;;;19.75;10.80;;;;;;;;;;4986421;28;20478;-72
2022/12/18 14:18:22;;;;;;;16.83;10.55;;;;;;;;;;4978641;28;20030;-73
2022/12/18 14:20:49;;;;;;;20.40;10.98;;;;;;;;;;4980948;28;20041;-73
2022/12/18 14:23:35;;;;;;;17.85;9.85;;;;;;;;;;4984006;28;20034;-72
2022/12/18 14:26:02;;;;;;;15.00;8.90;;;;;;;;;;4984780;28;20780;-72
2022/12/18 14:28:28;;;;;;;14.93;9.15;;;;;;;;;;4982278;28;20034;-72
2022/12/18 14:30:55;;;;;;;11.93;7.32;;;;;;;;;;4996335;28;20046;-73
2022/12/18 14:33:25;;;;;;;13.25;8.00;;;;;;;;;;5000659;28;20419;-73
2022/12/18 14:36:02;;;;;;;11.82;6.22;;;;;;;;;;4997444;28;20080;-74